Time;durP1;ratioP1;P1;durP2;ratioP2;P2;SDS_P1;SDS_P2;PMS_P1;PMS_P2;Temp;Humidity;BMP_temperature;BMP_pressure;BME280_temperature;BME280_humidity;BME280_pressure;Samples;Min_cycle;Max_cycle;Signal;HPM_P1;HPM_P2
2022/06/13 00:03:00;;;;;;;5.32;2.25;;;20.00;99.90;;;;;;6182208;28;20058;-83
2022/06/13 00:06:02;;;;;;;7.18;2.17;;;20.10;99.90;;;;;;6181004;28;20138;-85
2022/06/13 00:09:07;;;;;;;6.20;2.63;;;20.00;99.90;;;;;;6180588;28;20055;-84
2022/06/13 00:12:09;;;;;;;6.65;1.90;;;20.00;99.90;;;;;;6177837;28;20054;-84
2022/06/13 00:15:13;;;;;;;7.47;2.40;;;19.90;99.90;;;;;;6181366;28;20053;-82
2022/06/13 00:18:16;;;;;;;5.35;2.05;;;19.80;99.90;;;;;;6180641;28;20047;-83
2022/06/13 00:21:21;;;;;;;5.25;2.28;;;19.70;99.90;;;;;;6175180;28;20053;-86
2022/06/13 00:24:23;;;;;;;4.07;2.05;;;19.60;99.90;;;;;;6179519;28;20058;-84
2022/06/13 00:27:25;;;;;;;3.83;2.38;;;19.50;99.90;;;;;;6180586;28;20057;-85
2022/06/13 00:30:27;;;;;;;4.97;2.28;;;19.40;99.90;;;;;;6179762;28;20050;-86
2022/06/13 00:33:30;;;;;;;5.35;2.47;;;19.30;99.90;;;;;;6179765;28;20502;-83
2022/06/13 00:36:32;;;;;;;5.10;2.40;;;19.20;99.90;;;;;;6180189;28;20043;-84
2022/06/13 00:39:34;;;;;;;6.03;2.33;;;19.30;99.90;;;;;;6180340;28;20438;-85
2022/06/13 00:42:36;;;;;;;6.30;3.03;;;19.40;99.90;;;;;;6180092;28;20059;-85
2022/06/13 00:45:38;;;;;;;4.32;2.50;;;19.40;99.90;;;;;;6178818;28;20051;-84
2022/06/13 00:48:41;;;;;;;3.67;2.15;;;19.40;99.90;;;;;;6179513;28;20042;-85
2022/06/13 00:51:47;;;;;;;5.75;2.50;;;19.40;99.90;;;;;;6180640;28;20057;-83
2022/06/13 00:54:51;;;;;;;5.72;2.83;;;19.40;99.90;;;;;;6181112;28;20053;-85
2022/06/13 00:57:54;;;;;;;8.98;3.08;;;19.40;99.90;;;;;;6179815;28;20053;-83
2022/06/13 01:00:58;;;;;;;5.18;2.55;;;19.40;99.90;;;;;;6179901;28;20434;-84
2022/06/13 01:04:04;;;;;;;4.55;2.20;;;19.40;99.90;;;;;;6179860;28;20060;-85
2022/06/13 01:07:06;;;;;;;7.32;2.38;;;19.40;99.90;;;;;;6179877;28;20042;-85
2022/06/13 01:13:38;;;;;;;3.22;2.25;;;19.30;99.90;;;;;;6178127;28;20051;-84
2022/06/13 01:16:47;;;;;;;4.70;2.63;;;19.40;99.90;;;;;;6179690;28;20051;-82
2022/06/13 01:20:09;;;;;;;4.50;2.20;;;19.50;99.90;;;;;;6178879;28;20051;-85
2022/06/13 01:23:44;;;;;;;5.80;1.75;;;19.30;99.90;;;;;;6179559;28;20412;-84
2022/06/13 01:27:09;;;;;;;4.90;2.05;;;19.10;99.90;;;;;;6179714;28;20047;-83
2022/06/13 01:30:49;;;;;;;5.15;2.20;;;19.10;99.90;;;;;;6178509;28;20050;-85
2022/06/13 01:34:05;;;;;;;5.95;2.60;;;19.00;99.90;;;;;;6178520;28;20066;-85
2022/06/13 01:37:20;;;;;;;6.32;2.65;;;19.20;99.90;;;;;;6178565;28;20410;-84
2022/06/13 01:40:31;;;;;;;6.25;2.17;;;19.20;99.90;;;;;;6178652;28;20043;-85
2022/06/13 01:43:54;;;;;;;7.20;2.47;;;19.30;99.90;;;;;;6179400;28;20051;-83
2022/06/13 01:47:03;;;;;;;8.27;2.90;;;19.30;99.90;;;;;;6178832;28;20057;-85
2022/06/13 01:50:15;;;;;;;4.10;2.60;;;19.30;99.90;;;;;;6178400;28;20125;-84
2022/06/13 01:53:22;;;;;;;7.97;2.75;;;19.30;99.90;;;;;;6177869;28;20053;-84
2022/06/13 01:56:28;;;;;;;3.08;2.47;;;19.30;99.90;;;;;;6177970;28;20038;-84
2022/06/13 01:59:40;;;;;;;5.78;2.47;;;19.30;99.90;;;;;;6177024;28;20065;-85
2022/06/13 02:02:49;;;;;;;3.45;2.22;;;19.20;99.90;;;;;;6177834;28;20078;-84
2022/06/13 02:06:01;;;;;;;7.90;2.53;;;19.00;99.90;;;;;;6178074;28;20050;-83
2022/06/13 02:09:05;;;;;;;2.53;2.05;;;19.00;99.90;;;;;;6178825;28;20050;-84
2022/06/13 02:12:08;;;;;;;3.03;2.33;;;19.00;99.90;;;;;;6178800;28;20546;-84
2022/06/13 02:15:15;;;;;;;3.63;2.33;;;19.00;99.90;;;;;;6165917;28;20055;-85
2022/06/13 02:18:24;;;;;;;3.47;2.13;;;18.90;99.90;;;;;;6153601;28;20058;-84
2022/06/13 02:21:31;;;;;;;6.15;2.60;;;18.80;99.90;;;;;;6154618;28;20043;-84
2022/06/13 02:24:39;;;;;;;6.63;3.33;;;18.70;99.90;;;;;;6155220;28;20047;-84
2022/06/13 02:27:45;;;;;;;2.78;1.98;;;18.60;99.90;;;;;;6154637;28;20058;-85
2022/06/13 02:30:52;;;;;;;5.25;3.08;;;18.50;99.90;;;;;;6154221;29;20058;-83
2022/06/13 02:34:00;;;;;;;4.13;2.20;;;18.40;99.90;;;;;;6154319;28;20051;-84
2022/06/13 02:37:08;;;;;;;4.68;3.00;;;18.30;99.90;;;;;;6153769;28;20047;-84
2022/06/13 02:40:16;;;;;;;4.72;2.50;;;18.20;99.90;;;;;;6154204;28;20182;-86
2022/06/13 02:43:23;;;;;;;3.27;1.83;;;18.20;99.90;;;;;;6154991;29;20055;-85
2022/06/13 02:46:30;;;;;;;4.53;2.70;;;18.10;99.90;;;;;;6155255;28;20419;-85
2022/06/13 02:49:40;;;;;;;7.43;2.47;;;18.00;99.90;;;;;;6153807;28;20043;-84
2022/06/13 02:52:47;;;;;;;6.38;2.90;;;17.90;99.90;;;;;;6154320;28;20047;-84
2022/06/13 02:55:58;;;;;;;5.40;2.43;;;17.90;99.90;;;;;;6154420;28;20055;-84
2022/06/13 02:59:13;;;;;;;5.47;1.95;;;17.90;99.90;;;;;;6154633;29;20057;-83
2022/06/13 03:02:21;;;;;;;3.72;2.13;;;17.80;99.90;;;;;;6154387;28;20054;-84
2022/06/13 03:05:40;;;;;;;2.92;2.10;;;17.70;99.90;;;;;;6154267;28;20334;-84
2022/06/13 03:08:55;;;;;;;6.03;1.88;;;17.70;99.90;;;;;;6154661;28;20047;-84
2022/06/13 03:12:03;;;;;;;3.03;1.92;;;17.70;99.90;;;;;;6155034;28;20055;-85
2022/06/13 03:15:10;;;;;;;2.85;1.70;;;17.70;99.90;;;;;;6166115;28;20047;-85
2022/06/13 03:18:16;;;;;;;6.53;2.03;;;17.60;99.90;;;;;;6174138;28;20675;-83
2022/06/13 03:21:27;;;;;;;2.45;1.60;;;17.60;99.90;;;;;;6172796;28;20046;-83
2022/06/13 03:24:33;;;;;;;2.85;1.88;;;17.50;99.90;;;;;;6174458;28;20051;-84
2022/06/13 03:27:40;;;;;;;3.60;1.63;;;17.40;99.90;;;;;;6180686;28;20050;-83
2022/06/13 03:30:44;;;;;;;10.82;2.38;;;17.30;99.90;;;;;;6190463;28;20122;-81
2022/06/13 03:33:52;;;;;;;6.80;2.20;;;17.30;99.90;;;;;;6178749;28;20051;-83
2022/06/13 03:36:58;;;;;;;2.65;1.58;;;17.30;99.90;;;;;;6173010;28;20647;-83
2022/06/13 03:40:04;;;;;;;3.05;1.65;;;17.30;99.90;;;;;;6173363;28;20507;-82
2022/06/13 03:43:10;;;;;;;13.55;3.33;;;17.40;99.90;;;;;;6175478;28;20048;-84
2022/06/13 03:46:17;;;;;;;10.02;2.88;;;17.50;99.90;;;;;;6178095;28;20430;-83
2022/06/13 03:49:25;;;;;;;5.87;2.07;;;17.50;99.90;;;;;;6177849;28;20050;-82
2022/06/13 03:52:31;;;;;;;2.43;1.73;;;17.50;99.90;;;;;;6178634;28;20043;-84
2022/06/13 03:55:38;;;;;;;3.05;1.88;;;17.50;99.90;;;;;;6178311;28;20139;-85
2022/06/13 03:58:45;;;;;;;5.53;2.20;;;17.50;99.90;;;;;;6178017;28;20049;-83
2022/06/13 04:01:50;;;;;;;6.25;2.10;;;17.50;99.90;;;;;;6177838;28;20046;-82
2022/06/13 04:04:53;;;;;;;5.35;1.95;;;17.60;99.90;;;;;;6177130;28;20536;-81
2022/06/13 04:07:56;;;;;;;3.22;2.22;;;17.60;99.90;;;;;;6176895;28;20050;-81
2022/06/13 04:11:17;;;;;;;4.32;1.98;;;17.70;99.90;;;;;;6177391;28;20047;-80
2022/06/13 04:14:37;;;;;;;2.90;2.33;;;17.90;99.90;;;;;;6176384;28;20058;-81
2022/06/13 04:17:50;;;;;;;2.38;1.73;;;18.20;99.90;;;;;;6157245;28;20083;-81
2022/06/13 04:21:00;;;;;;;2.13;1.92;;;19.30;99.90;;;;;;6152386;28;20047;-80
2022/06/13 04:24:16;;;;;;;2.75;1.75;;;19.90;99.90;;;;;;6152889;28;20051;-80
2022/06/13 04:27:23;;;;;;;10.05;1.70;;;20.00;99.90;;;;;;6152955;29;20063;-81
2022/06/13 04:30:29;;;;;;;5.40;2.00;;;20.20;99.90;;;;;;6151989;28;20059;-81
2022/06/13 04:33:36;;;;;;;3.67;1.33;;;20.20;99.90;;;;;;6152413;28;20051;-82
2022/06/13 04:36:39;;;;;;;3.40;1.55;;;20.80;99.90;;;;;;6152828;28;20059;-81
2022/06/13 04:39:44;;;;;;;5.50;1.17;;;22.30;97.60;;;;;;6152460;28;20050;-80
2022/06/13 04:42:47;;;;;;;8.30;1.75;;;23.90;94.90;;;;;;6152605;29;20058;-82
2022/06/13 04:45:59;;;;;;;7.38;1.67;;;25.30;92.50;;;;;;6152014;28;20059;-80
2022/06/13 04:49:07;;;;;;;5.95;1.42;;;26.60;90.10;;;;;;6151517;28;20058;-81
2022/06/13 04:52:13;;;;;;;6.35;1.00;;;27.70;85.40;;;;;;6152244;28;20047;-83
2022/06/13 04:55:20;;;;;;;2.75;1.50;;;28.60;81.10;;;;;;6151543;28;20083;-81
2022/06/13 04:58:25;;;;;;;10.47;1.20;;;29.10;78.10;;;;;;6151571;28;20537;-81
2022/06/13 05:01:30;;;;;;;10.13;1.45;;;29.60;75.80;;;;;;6152157;28;20054;-81
2022/06/13 05:04:33;;;;;;;1.73;0.90;;;30.00;71.80;;;;;;6151670;28;20051;-81
2022/06/13 05:07:35;;;;;;;3.08;1.27;;;30.40;71.60;;;;;;6153586;28;20430;-83
2022/06/13 05:10:42;;;;;;;13.35;2.40;;;31.10;70.80;;;;;;6151225;28;20051;-82
2022/06/13 05:13:45;;;;;;;4.07;1.73;;;31.80;67.30;;;;;;6151930;28;20529;-82
2022/06/13 05:17:02;;;;;;;4.40;1.20;;;32.30;65.30;;;;;;6160332;28;20053;-83
2022/06/13 05:20:11;;;;;;;5.88;1.10;;;32.30;63.30;;;;;;6174063;28;20062;-82
2022/06/13 05:23:27;;;;;;;4.97;0.93;;;31.50;63.10;;;;;;6178277;28;20050;-82
2022/06/13 05:26:30;;;;;;;5.90;1.23;;;31.30;65.00;;;;;;6175657;28;20051;-84
2022/06/13 05:29:31;;;;;;;6.85;1.90;;;30.70;60.90;;;;;;6175735;28;20042;-83
2022/06/13 05:32:34;;;;;;;16.48;2.20;;;30.20;63.20;;;;;;6175821;28;20054;-83
2022/06/13 05:35:36;;;;;;;8.20;1.00;;;30.90;59.80;;;;;;6176555;28;20054;-83
2022/06/13 05:38:42;;;;;;;12.82;1.92;;;30.50;58.60;;;;;;6175945;28;20510;-82
2022/06/13 05:41:45;;;;;;;5.57;1.48;;;29.80;59.00;;;;;;6176998;28;20529;-81
2022/06/13 05:44:47;;;;;;;4.38;1.02;;;28.80;60.90;;;;;;6177796;28;20047;-82
2022/06/13 05:47:52;;;;;;;9.98;1.52;;;28.30;61.90;;;;;;6179715;28;20054;-83
2022/06/13 05:50:54;;;;;;;7.95;1.77;;;29.80;61.50;;;;;;6175814;28;20112;-81
2022/06/13 05:53:57;;;;;;;5.30;1.10;;;31.80;57.60;;;;;;6174053;28;20170;-82
2022/06/13 05:57:02;;;;;;;6.00;1.40;;;32.70;52.30;;;;;;6174096;28;20482;-82
2022/06/13 06:00:05;;;;;;;6.25;1.40;;;32.10;50.70;;;;;;6174641;28;20042;-83
2022/06/13 06:03:07;;;;;;;2.13;1.10;;;32.20;52.00;;;;;;6175429;28;20043;-81
2022/06/13 06:06:12;;;;;;;5.10;0.90;;;34.30;48.90;;;;;;6174089;28;20051;-81
2022/06/13 06:09:14;;;;;;;6.00;1.27;;;35.40;42.30;;;;;;6174188;28;20130;-82
2022/06/13 06:12:17;;;;;;;3.17;1.00;;;33.30;43.50;;;;;;6173861;28;20070;-81
2022/06/13 06:15:19;;;;;;;5.63;0.80;;;31.20;46.30;;;;;;6174997;28;20469;-82
2022/06/13 06:18:26;;;;;;;2.35;1.13;;;29.50;49.40;;;;;;6172457;28;20046;-81
2022/06/13 06:21:27;;;;;;;4.65;1.20;;;28.40;51.20;;;;;;6174187;28;20493;-83
2022/06/13 06:24:29;;;;;;;3.50;0.93;;;27.50;54.10;;;;;;6175387;28;20061;-81
2022/06/13 06:27:32;;;;;;;2.85;1.00;;;26.80;56.20;;;;;;6173072;28;20177;-81
2022/06/13 06:30:35;;;;;;;3.67;1.02;;;26.30;58.10;;;;;;6177096;28;20050;-82
2022/06/13 06:33:37;;;;;;;8.52;1.45;;;26.10;59.30;;;;;;6175816;28;20043;-84
2022/06/13 06:36:38;;;;;;;7.18;1.42;;;26.10;59.60;;;;;;6174271;28;20042;-80
2022/06/13 06:39:40;;;;;;;4.60;1.17;;;26.70;60.10;;;;;;6175498;28;20057;-82
2022/06/13 06:42:43;;;;;;;5.38;1.10;;;28.30;56.10;;;;;;6175993;28;20058;-82
2022/06/13 06:45:45;;;;;;;3.95;1.02;;;31.10;50.20;;;;;;6175007;28;20050;-84
2022/06/13 06:48:47;;;;;;;5.53;1.30;;;33.80;44.60;;;;;;6174631;28;20066;-83
2022/06/13 06:51:48;;;;;;;5.53;1.05;;;35.90;39.90;;;;;;6175158;28;20053;-82
2022/06/13 07:01:30;;;;;;;6.82;2.20;;;38.60;32.90;;;;;;6169888;28;20051;-83
2022/06/13 07:04:32;;;;;;;7.25;1.00;;;36.10;33.80;;;;;;6175639;28;20046;-81
2022/06/13 07:07:34;;;;;;;3.85;0.70;;;33.70;37.00;;;;;;6178501;28;20055;-83
2022/06/13 07:10:36;;;;;;;5.22;1.25;;;31.70;38.90;;;;;;6176626;28;20049;-84
2022/06/13 07:13:39;;;;;;;2.92;1.30;;;30.40;40.90;;;;;;6177399;28;20115;-82
2022/06/13 07:16:41;;;;;;;8.65;1.63;;;29.40;42.50;;;;;;6178453;28;20161;-81
2022/06/13 07:19:44;;;;;;;3.92;1.00;;;28.70;42.90;;;;;;6175701;28;20046;-83
2022/06/13 07:22:47;;;;;;;7.10;1.20;;;28.10;44.40;;;;;;6183271;28;20047;-84
2022/06/13 07:25:49;;;;;;;6.07;0.85;;;27.60;44.90;;;;;;6183367;28;20086;-82
2022/06/13 07:28:52;;;;;;;7.22;1.38;;;27.20;46.00;;;;;;6182297;28;20062;-83
2022/06/13 07:31:58;;;;;;;12.88;1.98;;;27.10;46.40;;;;;;6178437;28;20396;-81
2022/06/13 07:35:01;;;;;;;6.70;1.13;;;27.00;46.60;;;;;;6180038;28;20062;-81
2022/06/13 07:38:18;;;;;;;8.60;1.23;;;26.90;47.00;;;;;;6178592;28;20540;-81
2022/06/13 07:41:23;;;;;;;5.90;0.98;;;26.90;46.80;;;;;;6179485;28;20529;-82
2022/06/13 07:44:30;;;;;;;9.15;1.58;;;26.90;46.80;;;;;;6178532;28;20442;-80
2022/06/13 07:47:32;;;;;;;6.60;1.67;;;26.90;46.50;;;;;;6180503;28;20098;-83
2022/06/13 07:50:35;;;;;;;6.90;1.50;;;26.90;47.00;;;;;;6181318;28;20046;-81
2022/06/13 07:53:37;;;;;;;2.40;0.77;;;26.80;47.00;;;;;;6179242;28;20046;-81
2022/06/13 07:56:39;;;;;;;6.28;1.60;;;26.80;47.20;;;;;;6183497;28;20047;-82
2022/06/13 07:59:49;;;;;;;6.03;1.58;;;26.80;47.60;;;;;;6180533;28;20057;-83
2022/06/13 08:02:53;;;;;;;10.45;1.52;;;26.80;47.60;;;;;;6182047;28;20046;-84
2022/06/13 08:05:58;;;;;;;8.23;1.25;;;26.90;47.90;;;;;;6177369;28;20057;-83
2022/06/13 08:20:38;;;;;;;4.47;1.17;;;27.00;46.70;;;;;;6149740;28;20114;-82
2022/06/13 08:23:40;;;;;;;7.53;1.50;;;26.60;47.90;;;;;;6185311;28;20061;-84
2022/06/13 08:26:42;;;;;;;4.97;1.27;;;26.70;48.10;;;;;;6181548;28;20055;-81
2022/06/13 08:29:44;;;;;;;5.70;1.27;;;26.60;48.10;;;;;;6180325;28;20055;-81
2022/06/13 08:32:46;;;;;;;6.40;0.93;;;26.60;48.80;;;;;;6182657;28;20054;-82
2022/06/13 08:35:50;;;;;;;4.97;1.20;;;26.90;49.20;;;;;;6182865;28;20050;-82
2022/06/13 08:38:52;;;;;;;5.35;1.25;;;27.30;48.70;;;;;;6183073;28;20062;-83
2022/06/13 08:41:59;;;;;;;4.10;1.05;;;27.60;48.00;;;;;;6183350;28;20047;-82
2022/06/13 08:45:05;;;;;;;4.75;0.98;;;27.80;47.70;;;;;;6184519;28;20503;-82
2022/06/13 08:48:12;;;;;;;5.55;1.15;;;28.00;47.60;;;;;;6183394;28;20051;-82
2022/06/13 08:51:21;;;;;;;5.87;1.40;;;27.70;47.50;;;;;;6182817;28;20479;-83
2022/06/13 08:54:29;;;;;;;5.00;1.10;;;27.30;48.00;;;;;;6182737;28;20050;-82
2022/06/13 08:57:34;;;;;;;4.10;1.02;;;27.20;48.90;;;;;;6183684;28;20047;-83
2022/06/13 09:00:39;;;;;;;6.93;0.93;;;27.40;48.80;;;;;;6183813;28;20154;-82
2022/06/13 09:03:49;;;;;;;4.80;1.23;;;27.60;48.30;;;;;;6183232;28;20070;-81
2022/06/13 09:06:58;;;;;;;3.80;1.33;;;27.40;47.80;;;;;;6184378;28;20125;-82
2022/06/13 09:10:06;;;;;;;2.72;1.10;;;27.00;47.80;;;;;;6183728;28;20057;-81
2022/06/13 09:13:16;;;;;;;7.72;1.75;;;26.70;50.00;;;;;;6184244;28;20043;-81
2022/06/13 09:16:25;;;;;;;6.65;2.28;;;26.80;49.10;;;;;;6184283;28;20367;-81
2022/06/13 09:19:33;;;;;;;5.88;0.75;;;27.20;48.50;;;;;;6183312;28;20078;-81
2022/06/13 09:22:42;;;;;;;5.28;1.10;;;27.70;46.80;;;;;;6182105;28;20055;-82
2022/06/13 09:25:52;;;;;;;7.00;0.95;;;28.20;45.90;;;;;;6181816;28;20156;-82
2022/06/13 09:29:00;;;;;;;8.13;1.13;;;28.30;44.90;;;;;;6180781;28;20514;-81
2022/06/13 09:32:08;;;;;;;3.25;1.02;;;28.00;45.00;;;;;;6180494;28;20102;-81
2022/06/13 09:35:17;;;;;;;4.72;1.52;;;27.60;45.60;;;;;;6181078;28;20479;-81
2022/06/13 09:38:24;;;;;;;3.47;0.73;;;27.60;44.70;;;;;;6180412;28;20046;-82
2022/06/13 09:41:40;;;;;;;7.03;1.17;;;27.70;42.60;;;;;;6180179;28;20043;-81
2022/06/13 09:45:03;;;;;;;3.60;0.93;;;28.00;42.90;;;;;;6180906;28;20078;-81
2022/06/13 09:48:16;;;;;;;5.03;2.05;;;28.20;42.10;;;;;;6178153;28;20057;-82
2022/06/13 09:51:32;;;;;;;7.05;1.23;;;28.20;42.20;;;;;;6180780;28;20055;-82
2022/06/13 09:54:42;;;;;;;3.78;0.80;;;28.10;42.20;;;;;;6182865;28;20567;-81
2022/06/13 09:57:50;;;;;;;2.60;0.93;;;28.20;42.20;;;;;;6182941;28;20050;-83
2022/06/13 10:00:59;;;;;;;2.90;0.90;;;28.00;41.50;;;;;;6185730;28;20050;-82
2022/06/13 10:04:11;;;;;;;2.15;0.88;;;28.00;41.80;;;;;;6231932;23;20153;-84
2022/06/13 10:07:19;;;;;;;4.68;1.17;;;28.40;41.00;;;;;;6248082;28;20057;-84
2022/06/13 10:10:32;;;;;;;4.32;0.95;;;29.00;39.60;;;;;;6249395;28;20074;-84
2022/06/13 10:13:46;;;;;;;5.05;0.93;;;29.00;39.70;;;;;;6248333;28;20048;-84
2022/06/13 10:17:02;;;;;;;3.55;0.90;;;28.90;40.30;;;;;;6247946;28;20045;-86
2022/06/13 10:20:11;;;;;;;3.42;0.88;;;28.30;41.50;;;;;;6251767;28;20496;-85
2022/06/13 10:23:21;;;;;;;3.67;0.95;;;28.10;42.50;;;;;;6246174;28;20710;-86
2022/06/13 10:26:31;;;;;;;2.42;0.80;;;28.40;42.70;;;;;;6247089;28;20049;-83
2022/06/13 10:29:55;;;;;;;5.55;0.88;;;28.80;40.20;;;;;;6246546;28;20424;-84
2022/06/13 10:33:26;;;;;;;4.63;0.60;;;29.00;40.60;;;;;;6247496;28;20057;-84
2022/06/13 10:36:39;;;;;;;4.30;0.73;;;29.00;39.90;;;;;;6247367;28;20068;-86
2022/06/13 10:39:42;;;;;;;2.38;0.63;;;28.60;40.20;;;;;;6247437;28;20057;-85
2022/06/13 10:42:45;;;;;;;3.03;0.65;;;28.60;37.80;;;;;;6247459;28;20515;-87
2022/06/13 10:45:47;;;;;;;3.55;0.60;;;28.60;36.80;;;;;;6247222;28;20057;-86
2022/06/13 10:48:54;;;;;;;2.35;0.38;;;28.80;37.30;;;;;;6246993;28;20079;-84
2022/06/13 10:52:04;;;;;;;3.65;0.88;;;28.90;36.50;;;;;;6247939;28;20057;-84
2022/06/13 10:55:09;;;;;;;2.83;0.70;;;28.60;37.20;;;;;;6253890;28;20050;-86
2022/06/13 10:58:18;;;;;;;1.80;0.38;;;28.80;37.30;;;;;;6251699;28;20427;-85
2022/06/13 11:01:22;;;;;;;2.45;0.40;;;29.30;35.40;;;;;;6252011;28;20136;-86
2022/06/13 11:04:24;;;;;;;2.15;0.50;;;29.90;34.10;;;;;;6251506;28;20042;-84
2022/06/13 11:07:25;;;;;;;3.47;0.90;;;30.40;34.40;;;;;;6252332;28;20061;-86
2022/06/13 11:10:32;;;;;;;3.13;0.77;;;30.60;33.70;;;;;;6251372;28;20054;-87
2022/06/13 11:13:38;;;;;;;2.20;0.70;;;30.60;33.70;;;;;;6252513;28;20034;-85
2022/06/13 11:23:21;;;;;;;3.30;0.50;;;30.50;33.90;;;;;;6235922;28;20046;-83
2022/06/13 11:29:41;;;;;;;2.83;0.55;;;29.60;34.40;;;;;;6227051;28;20412;-85
2022/06/13 11:32:56;;;;;;;4.93;0.60;;;30.00;34.10;;;;;;6253065;28;20123;-84
2022/06/13 11:36:01;;;;;;;3.55;0.50;;;30.50;33.40;;;;;;6252819;28;20049;-83
2022/06/13 11:39:05;;;;;;;3.53;0.40;;;31.00;32.20;;;;;;6256289;28;20046;-84
2022/06/13 11:42:17;;;;;;;3.47;0.35;;;31.20;31.80;;;;;;6254521;28;20108;-84
2022/06/13 11:45:26;;;;;;;2.85;0.68;;;31.40;32.30;;;;;;6251890;28;20052;-82
2022/06/13 11:48:29;;;;;;;1.52;0.73;;;31.70;30.60;;;;;;6251324;28;20081;-84
2022/06/13 11:51:40;;;;;;;1.23;0.30;;;31.40;30.20;;;;;;6251240;28;20419;-83
2022/06/13 11:54:51;;;;;;;2.80;0.60;;;30.60;31.60;;;;;;6251000;28;20061;-82
2022/06/13 11:57:56;;;;;;;3.20;0.47;;;30.10;31.50;;;;;;6250418;28;20053;-84
2022/06/13 12:01:11;;;;;;;2.88;0.98;;;30.10;32.50;;;;;;6250962;28;20401;-83
2022/06/13 12:04:18;;;;;;;2.78;0.40;;;30.60;32.50;;;;;;6251521;28;20037;-85
2022/06/13 12:07:24;;;;;;;1.25;0.40;;;31.20;31.90;;;;;;6250735;28;20053;-84
2022/06/13 12:10:30;;;;;;;4.88;1.45;;;31.60;31.40;;;;;;6252541;28;20081;-82
2022/06/13 12:13:34;;;;;;;3.72;0.60;;;32.10;30.70;;;;;;6250711;28;20468;-84
2022/06/13 12:16:41;;;;;;;2.92;0.57;;;32.20;30.50;;;;;;6250723;28;20132;-84
2022/06/13 12:19:50;;;;;;;1.65;0.50;;;31.80;30.40;;;;;;6250487;28;20049;-84
2022/06/13 12:22:56;;;;;;;3.50;0.77;;;31.40;31.10;;;;;;6251247;28;20082;-84
2022/06/13 12:26:06;;;;;;;2.20;0.43;;;31.50;31.00;;;;;;6236788;28;20497;-82
2022/06/13 12:29:25;;;;;;;2.10;0.90;;;32.00;30.80;;;;;;6254889;28;20320;-83
2022/06/13 12:32:31;;;;;;;3.53;0.60;;;32.50;30.10;;;;;;6252468;28;20068;-83
2022/06/13 12:35:45;;;;;;;1.23;0.30;;;32.90;30.40;;;;;;6253757;28;20047;-83
2022/06/13 12:39:12;;;;;;;3.13;0.63;;;32.70;29.70;;;;;;6251876;28;20060;-83
2022/06/13 12:42:25;;;;;;;6.03;1.00;;;32.30;30.30;;;;;;6253372;28;20420;-82
2022/06/13 12:45:55;;;;;;;3.10;0.60;;;31.90;30.30;;;;;;6252476;28;20504;-83
2022/06/13 12:49:15;;;;;;;4.55;0.82;;;31.40;30.50;;;;;;6225413;28;20061;-82
2022/06/13 12:52:33;;;;;;;4.63;0.77;;;31.30;30.80;;;;;;6252231;28;20037;-83
2022/06/13 12:55:37;;;;;;;;;;;31.20;31.00;;;;;;6252888;28;20048;-82
2022/06/13 12:59:04;;;;;;;3.25;0.70;;;30.90;31.40;;;;;;6251246;28;19921;-83
2022/06/13 13:02:24;;;;;;;1.48;0.40;;;30.60;30.90;;;;;;6251279;28;20398;-83
2022/06/13 13:05:38;;;;;;;2.65;0.60;;;30.40;31.30;;;;;;6252208;28;20131;-83
2022/06/13 13:08:55;;;;;;;3.40;0.98;;;30.50;31.60;;;;;;6250820;28;20552;-83
2022/06/13 13:12:10;;;;;;;2.10;0.43;;;30.70;30.70;;;;;;6249757;28;20053;-84
2022/06/13 13:15:19;;;;;;;1.77;0.80;;;30.70;31.40;;;;;;6249464;28;20056;-84
2022/06/13 13:18:34;;;;;;;1.80;0.52;;;31.20;31.80;;;;;;6249250;28;20060;-84
2022/06/13 13:21:44;;;;;;;2.15;0.70;;;31.60;30.40;;;;;;6249981;28;20062;-84
2022/06/13 13:25:02;;;;;;;1.38;0.45;;;31.40;30.50;;;;;;6248598;28;20041;-84
2022/06/13 13:28:17;;;;;;;6.40;0.73;;;31.20;30.60;;;;;;6249937;28;20045;-83
2022/06/13 13:31:29;;;;;;;1.75;0.75;;;31.30;30.70;;;;;;6226173;28;20049;-84
2022/06/13 13:34:46;;;;;;;1.45;0.45;;;31.30;30.70;;;;;;6228250;28;20050;-83
2022/06/13 13:37:54;;;;;;;4.00;0.70;;;31.50;30.60;;;;;;6229280;28;20049;-85
2022/06/13 13:41:02;;;;;;;4.30;0.70;;;32.00;30.40;;;;;;6229600;28;20132;-84
2022/06/13 13:44:07;;;;;;;;;;;32.30;29.80;;;;;;6229070;28;20053;-84
2022/06/13 13:47:13;;;;;;;1.75;0.50;;;32.40;29.90;;;;;;6234030;28;19928;-83
2022/06/13 13:50:19;;;;;;;1.55;0.43;;;32.50;29.80;;;;;;6236397;28;20054;-84
2022/06/13 13:53:31;;;;;;;2.13;0.55;;;32.70;29.40;;;;;;6230421;28;20416;-84
2022/06/13 13:56:38;;;;;;;1.25;0.50;;;32.90;29.30;;;;;;6227318;28;20100;-85
2022/06/13 13:59:44;;;;;;;1.95;0.45;;;33.10;29.10;;;;;;6245967;28;20053;-85
2022/06/13 14:02:52;;;;;;;4.83;0.77;;;33.40;29.10;;;;;;6251150;28;20055;-84
2022/06/13 14:05:57;;;;;;;0.98;0.40;;;33.30;28.80;;;;;;6251218;28;20284;-84
2022/06/13 14:09:01;;;;;;;4.43;0.55;;;33.40;29.40;;;;;;6252383;28;20053;-85
2022/06/13 14:12:08;;;;;;;1.63;0.75;;;33.70;29.00;;;;;;6249988;28;20698;-85
2022/06/13 14:15:18;;;;;;;1.80;0.60;;;33.50;28.90;;;;;;6248728;28;20053;-84
2022/06/13 14:18:26;;;;;;;3.45;0.65;;;33.00;29.00;;;;;;6248176;28;20071;-83
2022/06/13 14:21:55;;;;;;;1.83;0.75;;;32.60;29.30;;;;;;6248557;28;20536;-85
2022/06/13 14:25:05;;;;;;;2.25;0.55;;;32.20;29.60;;;;;;6246338;28;20045;-85
2022/06/13 14:28:10;;;;;;;2.83;0.52;;;32.30;30.00;;;;;;6245986;28;20082;-84
2022/06/13 14:31:12;;;;;;;4.18;0.60;;;32.40;29.50;;;;;;6248622;28;20052;-84
2022/06/13 14:38:06;;;;;;;2.80;0.85;;;32.90;29.20;;;;;;6248470;28;20041;-84
2022/06/13 14:41:22;;;;;;;1.58;0.43;;;33.10;29.00;;;;;;6247249;28;20053;-85
2022/06/13 14:44:30;;;;;;;1.42;0.22;;;33.20;29.20;;;;;;6249090;28;20045;-85
2022/06/13 14:47:59;;;;;;;2.60;0.50;;;33.20;28.60;;;;;;6250079;28;20507;-85
2022/06/13 14:51:24;;;;;;;2.22;0.90;;;33.20;28.60;;;;;;6249909;28;20055;-84
2022/06/13 14:55:23;;;;;;;2.20;0.50;;;33.50;28.90;;;;;;6248315;28;20052;-84
2022/06/13 15:02:28;;;;;;;2.65;0.77;;;33.20;29.00;;;;;;6303412;27;20401;-85
2022/06/13 15:05:53;;;;;;;4.05;1.00;;;33.00;28.40;;;;;;6281590;28;20051;-85
2022/06/13 15:09:16;;;;;;;2.35;0.50;;;32.80;28.90;;;;;;6264106;28;20041;-86
2022/06/13 15:12:21;;;;;;;3.13;0.80;;;32.70;29.40;;;;;;6268922;28;20041;-86
2022/06/13 15:15:29;;;;;;;2.90;0.70;;;32.50;29.30;;;;;;6270809;28;20033;-85
2022/06/13 15:18:34;;;;;;;3.10;0.70;;;32.30;29.10;;;;;;6268017;28;20092;-85
2022/06/13 15:21:42;;;;;;;1.40;0.50;;;32.30;29.40;;;;;;6268225;28;20064;-85
2022/06/13 15:24:49;;;;;;;5.82;0.95;;;32.20;29.10;;;;;;6268013;28;20052;-85
2022/06/13 15:27:52;;;;;;;2.25;0.57;;;32.00;29.60;;;;;;6266847;28;20045;-85
2022/06/13 15:31:06;;;;;;;11.02;1.35;;;31.90;29.90;;;;;;6269043;28;20045;-85
2022/06/13 15:34:10;;;;;;;2.85;0.88;;;31.80;30.00;;;;;;6267839;28;20191;-85
2022/06/13 15:37:12;;;;;;;5.03;0.85;;;31.90;29.80;;;;;;6267671;28;20046;-85
2022/06/13 15:40:23;;;;;;;2.90;0.70;;;32.00;29.50;;;;;;6267715;28;20049;-85
2022/06/13 15:43:35;;;;;;;3.30;0.60;;;32.10;29.50;;;;;;6267833;28;20059;-85
2022/06/13 15:46:46;;;;;;;1.65;0.75;;;32.30;29.50;;;;;;6268936;28;20040;-85
2022/06/13 15:49:50;;;;;;;4.13;0.73;;;32.40;29.20;;;;;;6267227;28;20045;-85
2022/06/13 15:52:53;;;;;;;1.70;0.63;;;32.40;29.60;;;;;;6267546;28;20049;-85
2022/06/13 15:55:55;;;;;;;4.82;0.73;;;32.40;29.30;;;;;;6267777;28;20057;-85
2022/06/13 15:59:00;;;;;;;4.22;0.77;;;32.20;29.20;;;;;;6267610;28;20047;-85
2022/06/13 16:02:03;;;;;;;3.00;0.93;;;32.20;29.20;;;;;;6269080;28;20124;-85
2022/06/13 16:05:13;;;;;;;3.33;0.60;;;32.40;29.10;;;;;;6246785;23;20056;-82
2022/06/13 16:08:17;;;;;;;2.22;0.73;;;32.50;29.00;;;;;;6215981;28;20057;-82
2022/06/13 16:11:27;;;;;;;3.95;0.80;;;32.40;28.40;;;;;;6193340;28;20496;-82
2022/06/13 16:14:29;;;;;;;3.78;0.80;;;32.20;29.30;;;;;;6204308;28;20046;-83
2022/06/13 16:17:35;;;;;;;3.30;0.77;;;32.00;28.80;;;;;;6205764;28;20038;-82
2022/06/13 16:20:40;;;;;;;2.97;0.80;;;31.90;29.10;;;;;;6208933;28;20073;-82
2022/06/13 16:23:48;;;;;;;2.78;0.63;;;31.50;29.00;;;;;;6217812;28;20085;-82
2022/06/13 16:26:50;;;;;;;;;;;31.10;30.30;;;;;;6204331;28;20050;-82
2022/06/13 16:29:57;;;;;;;3.10;0.70;;;30.80;30.00;;;;;;6204276;28;19932;-81
2022/06/13 16:33:00;;;;;;;1.88;0.80;;;30.50;30.10;;;;;;6213785;28;20047;-82
2022/06/13 16:36:06;;;;;;;6.60;0.77;;;30.30;30.50;;;;;;6215049;28;20050;-80
2022/06/13 16:39:28;;;;;;;1.33;0.50;;;30.20;30.50;;;;;;6210469;28;20051;-81
2022/06/13 16:42:30;;;;;;;3.78;0.88;;;30.10;30.70;;;;;;6205392;28;20046;-81
2022/06/13 16:45:32;;;;;;;2.65;0.55;;;30.00;31.00;;;;;;6205839;28;20042;-81
2022/06/13 16:48:43;;;;;;;4.90;0.85;;;30.00;31.20;;;;;;6204999;28;20046;-81
2022/06/13 16:51:52;;;;;;;2.90;0.85;;;29.80;31.40;;;;;;6203949;28;20058;-82
2022/06/13 16:54:58;;;;;;;2.80;0.90;;;29.80;31.20;;;;;;6204904;28;20050;-80
2022/06/13 16:58:01;;;;;;;3.15;0.95;;;29.80;31.60;;;;;;6203322;28;20050;-83
2022/06/13 17:01:07;;;;;;;2.30;0.63;;;29.70;31.20;;;;;;6181464;28;20051;-83